createdAt,value
2018-07-15T00:01:47.922Z,994.41
2018-07-15T00:02:47.824Z,994.40
2018-07-15T00:04:40.683Z,994.34
2018-07-15T00:05:40.575Z,994.37
2018-07-15T00:07:33.412Z,994.31
2018-07-15T00:08:33.339Z,994.30
2018-07-15T00:10:26.178Z,994.34
2018-07-15T00:11:26.076Z,994.33
2018-07-15T00:13:18.925Z,994.31
2018-07-15T00:14:18.820Z,994.32
2018-07-15T00:16:11.684Z,994.33
2018-07-15T00:17:11.572Z,994.35
2018-07-15T00:19:04.437Z,994.28
2018-07-15T00:20:04.318Z,994.28
2018-07-15T00:21:57.170Z,994.27
2018-07-15T00:22:57.134Z,994.29
2018-07-15T00:24:49.929Z,994.30
2018-07-15T00:25:49.817Z,994.32
2018-07-15T00:27:42.772Z,994.30
2018-07-15T00:28:42.588Z,994.29
2018-07-15T00:30:35.430Z,994.28
2018-07-15T00:31:35.328Z,994.28
2018-07-15T00:33:28.181Z,994.28
2018-07-15T00:34:28.099Z,994.25
2018-07-15T00:36:20.983Z,994.29
2018-07-15T00:37:20.816Z,994.27
2018-07-15T00:39:13.709Z,994.26
2018-07-15T00:40:13.563Z,994.21
2018-07-15T00:42:06.432Z,994.23
2018-07-15T00:43:06.317Z,994.20
2018-07-15T00:44:59.303Z,994.20
2018-07-15T00:45:59.175Z,994.22
2018-07-15T00:47:52.028Z,994.24
2018-07-15T00:48:51.915Z,994.25
2018-07-15T00:50:44.794Z,994.25
2018-07-15T00:51:44.674Z,994.21
2018-07-15T00:53:37.515Z,994.23
2018-07-15T00:54:37.415Z,994.26
2018-07-15T00:56:30.271Z,994.24
2018-07-15T00:57:30.167Z,994.22
2018-07-15T00:59:23.111Z,994.25
2018-07-15T01:00:23.009Z,994.27
2018-07-15T01:02:15.794Z,994.22
2018-07-15T01:03:15.686Z,994.24
2018-07-15T01:05:08.544Z,994.27
2018-07-15T01:06:08.420Z,994.22
2018-07-15T01:08:01.266Z,994.23
2018-07-15T01:09:01.165Z,994.23
2018-07-15T01:10:54.028Z,994.19
2018-07-15T01:11:53.919Z,994.20
2018-07-15T01:13:46.766Z,994.16
2018-07-15T01:14:46.690Z,994.13
2018-07-15T01:16:39.517Z,994.11
2018-07-15T01:17:39.415Z,994.11
2018-07-15T01:19:32.264Z,994.11
2018-07-15T01:20:32.165Z,994.12
2018-07-15T01:22:25.020Z,994.07
2018-07-15T01:23:24.953Z,994.07
2018-07-15T01:25:17.760Z,994.07
2018-07-15T01:26:17.676Z,994.02
2018-07-15T01:28:10.559Z,994.05
2018-07-15T01:29:10.414Z,994.06
2018-07-15T01:31:03.265Z,994.10
2018-07-15T01:32:03.173Z,994.04
2018-07-15T01:33:56.026Z,994.01
2018-07-15T01:34:55.911Z,993.99
2018-07-15T01:36:48.756Z,993.97
2018-07-15T01:37:48.657Z,993.97
2018-07-15T01:39:41.552Z,993.97
2018-07-15T01:40:41.431Z,993.99
2018-07-15T01:42:34.279Z,993.96
2018-07-15T01:43:34.161Z,993.92
2018-07-15T01:45:27.059Z,993.96
2018-07-15T01:46:26.919Z,993.95
2018-07-15T01:48:19.773Z,993.98
2018-07-15T01:49:19.667Z,993.91
2018-07-15T01:51:12.549Z,993.99
2018-07-15T01:52:12.434Z,993.98
2018-07-15T01:54:05.264Z,994.00
2018-07-15T01:55:05.179Z,993.97
2018-07-15T01:56:58.242Z,993.99
2018-07-15T01:57:58.014Z,993.93
2018-07-15T01:59:50.887Z,993.92
2018-07-15T02:00:50.762Z,993.94
2018-07-15T02:02:43.612Z,993.92
2018-07-15T02:03:43.519Z,993.89
2018-07-15T02:05:36.383Z,993.90
2018-07-15T02:06:36.284Z,993.91
2018-07-15T02:08:29.210Z,993.94
2018-07-15T02:09:29.009Z,993.94
2018-07-15T02:11:21.881Z,993.92
2018-07-15T02:12:21.771Z,993.91
2018-07-15T02:14:14.619Z,993.85
2018-07-15T02:15:14.506Z,993.87
2018-07-15T02:17:07.367Z,993.80
2018-07-15T02:18:07.261Z,993.84
2018-07-15T02:20:00.107Z,993.80
2018-07-15T02:21:00.004Z,993.83
2018-07-15T02:22:52.893Z,993.80
2018-07-15T02:23:52.760Z,993.80
2018-07-15T02:25:47.139Z,993.79
2018-07-15T02:26:47.038Z,993.79
2018-07-15T02:28:39.910Z,993.76
2018-07-15T02:29:39.822Z,993.74
2018-07-15T02:31:33.146Z,993.78
2018-07-15T02:32:33.070Z,993.81
2018-07-15T02:34:25.914Z,993.83
2018-07-15T02:35:25.859Z,993.80
2018-07-15T02:37:18.678Z,993.78
2018-07-15T02:38:18.560Z,993.80
2018-07-15T02:40:11.399Z,993.80
2018-07-15T02:41:11.298Z,993.80
2018-07-15T02:43:04.272Z,993.82
2018-07-15T02:44:04.158Z,993.83
2018-07-15T02:45:57.514Z,993.83
2018-07-15T02:46:56.911Z,993.82
2018-07-15T02:48:49.769Z,993.79
2018-07-15T02:49:49.661Z,993.78
2018-07-15T02:51:42.524Z,993.80
2018-07-15T02:52:42.403Z,993.79
2018-07-15T02:54:35.262Z,993.77
2018-07-15T02:55:35.162Z,993.78
2018-07-15T02:57:28.511Z,993.79
2018-07-15T02:58:28.409Z,993.77
2018-07-15T03:00:21.282Z,993.74
2018-07-15T03:01:21.165Z,993.77
2018-07-15T03:03:14.106Z,993.77
2018-07-15T03:04:14.014Z,993.73
2018-07-15T03:06:06.894Z,993.79
2018-07-15T03:07:06.664Z,993.79
2018-07-15T03:08:59.505Z,993.75
2018-07-15T03:09:59.418Z,993.77
2018-07-15T03:11:52.309Z,993.75
2018-07-15T03:12:52.163Z,993.76
2018-07-15T03:14:45.032Z,993.78
2018-07-15T03:15:44.912Z,993.77
2018-07-15T03:17:37.792Z,993.79
2018-07-15T03:18:37.660Z,993.77
2018-07-15T03:20:31.027Z,993.75
2018-07-15T03:21:30.917Z,993.75
2018-07-15T03:23:23.807Z,993.78
2018-07-15T03:24:23.675Z,993.76
2018-07-15T03:26:16.517Z,993.77
2018-07-15T03:27:16.416Z,993.79
2018-07-15T03:29:09.298Z,993.77
2018-07-15T03:30:09.191Z,993.77
2018-07-15T03:32:02.032Z,993.80
2018-07-15T03:33:01.917Z,993.77
2018-07-15T03:34:54.664Z,993.77
2018-07-15T03:35:54.588Z,993.73
2018-07-15T03:37:47.332Z,993.72
2018-07-15T03:38:47.236Z,993.71
2018-07-15T03:40:39.994Z,993.68
2018-07-15T03:41:39.868Z,993.68
2018-07-15T03:43:32.740Z,993.66
2018-07-15T03:44:32.663Z,993.63
2018-07-15T03:46:25.522Z,993.63
2018-07-15T03:47:25.259Z,993.64
2018-07-15T03:49:18.126Z,993.58
2018-07-15T03:50:18.037Z,993.61
2018-07-15T03:52:10.856Z,993.61
2018-07-15T03:53:10.754Z,993.59
2018-07-15T03:55:04.044Z,993.58
2018-07-15T03:56:03.921Z,993.58
2018-07-15T03:57:56.668Z,993.63
2018-07-15T03:58:56.567Z,993.63
2018-07-15T04:00:49.445Z,993.68
2018-07-15T04:01:49.225Z,993.67
2018-07-15T04:03:42.057Z,993.62
2018-07-15T04:04:41.969Z,993.63
2018-07-15T04:06:34.733Z,993.64
2018-07-15T04:07:34.622Z,993.58
2018-07-15T04:09:27.368Z,993.60
2018-07-15T04:10:27.270Z,993.54
2018-07-15T04:12:20.129Z,993.57
2018-07-15T04:13:20.017Z,993.58
2018-07-15T04:15:12.769Z,993.58
2018-07-15T04:16:12.656Z,993.57
2018-07-15T04:18:05.399Z,993.56
2018-07-15T04:19:05.492Z,993.58
2018-07-15T04:20:58.836Z,993.58
2018-07-15T04:21:58.073Z,993.59
2018-07-15T04:23:50.900Z,993.56
2018-07-15T04:24:50.860Z,993.55
2018-07-15T04:26:43.584Z,993.54
2018-07-15T04:27:43.449Z,993.54
2018-07-15T04:29:36.308Z,993.57
2018-07-15T04:30:36.197Z,993.54
2018-07-15T04:32:29.048Z,993.55
2018-07-15T04:33:29.067Z,993.53
2018-07-15T04:35:21.811Z,993.57
2018-07-15T04:36:21.803Z,993.55
2018-07-15T04:38:14.565Z,993.54
2018-07-15T04:39:14.441Z,993.51
2018-07-15T04:41:07.308Z,993.50
2018-07-15T04:42:07.092Z,993.48
2018-07-15T04:43:59.933Z,993.48
2018-07-15T04:44:59.841Z,993.49
2018-07-15T04:46:52.726Z,993.47
2018-07-15T04:47:52.591Z,993.47
2018-07-15T04:49:45.864Z,993.45
2018-07-15T04:50:45.762Z,993.44
2018-07-15T04:52:38.511Z,993.47
2018-07-15T04:53:38.400Z,993.45
2018-07-15T04:55:31.140Z,993.44
2018-07-15T04:56:31.046Z,993.43
2018-07-15T04:58:23.795Z,993.43
2018-07-15T04:59:23.698Z,993.40
2018-07-15T05:01:16.532Z,993.43
2018-07-15T05:02:16.439Z,993.46
2018-07-15T05:04:09.202Z,993.48
2018-07-15T05:05:09.100Z,993.45
2018-07-15T05:07:01.837Z,993.48
2018-07-15T05:08:01.741Z,993.48
2018-07-15T05:09:54.495Z,993.51
2018-07-15T05:10:54.382Z,993.52
2018-07-15T05:12:47.142Z,993.53
2018-07-15T05:13:47.033Z,993.54
2018-07-15T05:15:39.807Z,993.57
2018-07-15T05:16:39.678Z,993.56
2018-07-15T05:18:32.667Z,993.62
2018-07-15T05:19:32.350Z,993.60
2018-07-15T05:21:25.210Z,993.59
2018-07-15T05:22:25.069Z,993.63
2018-07-15T05:24:17.833Z,993.57
2018-07-15T05:25:17.743Z,993.56
2018-07-15T05:27:10.590Z,993.53
2018-07-15T05:28:10.472Z,993.56
2018-07-15T05:30:03.281Z,993.57
2018-07-15T05:31:03.124Z,993.58
2018-07-15T05:32:55.878Z,993.60
2018-07-15T05:33:55.791Z,993.63
2018-07-15T05:35:48.631Z,993.60
2018-07-15T05:36:48.428Z,993.61
2018-07-15T05:38:41.261Z,993.61
2018-07-15T05:39:41.158Z,993.63
2018-07-15T05:41:33.903Z,993.56
2018-07-15T05:42:33.814Z,993.61
2018-07-15T05:44:26.569Z,993.62
2018-07-15T05:45:26.462Z,993.58
2018-07-15T05:47:19.295Z,993.61
2018-07-15T05:48:19.223Z,993.61
2018-07-15T05:50:11.983Z,993.65
2018-07-15T05:51:11.855Z,993.65
2018-07-15T05:53:04.602Z,993.68
2018-07-15T05:54:04.514Z,993.67
2018-07-15T05:55:57.262Z,993.66
2018-07-15T05:56:57.146Z,993.69
2018-07-15T05:58:50.401Z,993.72
2018-07-15T05:59:50.311Z,993.68
2018-07-15T06:01:43.190Z,993.67
2018-07-15T06:02:43.060Z,993.69
2018-07-15T06:04:35.908Z,993.70
2018-07-15T06:05:35.720Z,993.73
2018-07-15T06:07:28.463Z,993.76
2018-07-15T06:08:28.393Z,993.75
2018-07-15T06:10:21.235Z,993.76
2018-07-15T06:11:21.116Z,993.78
2018-07-15T06:13:14.008Z,993.79
2018-07-15T06:14:13.910Z,993.81
2018-07-15T06:16:06.792Z,993.85
2018-07-15T06:17:06.712Z,993.86
2018-07-15T06:18:59.357Z,993.81
2018-07-15T06:19:59.249Z,993.82
2018-07-15T06:21:52.137Z,993.81
2018-07-15T06:22:52.175Z,993.84
2018-07-15T06:24:44.869Z,993.84
2018-07-15T06:25:44.746Z,993.83
2018-07-15T06:27:37.632Z,993.81
2018-07-15T06:28:37.519Z,993.81
2018-07-15T06:30:30.251Z,993.78
2018-07-15T06:31:30.157Z,993.77
2018-07-15T06:33:23.055Z,993.78
2018-07-15T06:34:22.792Z,993.78
2018-07-15T06:36:15.636Z,993.83
2018-07-15T06:37:15.554Z,993.83
2018-07-15T06:39:08.837Z,993.76
2018-07-15T06:40:08.708Z,993.79
2018-07-15T06:42:01.548Z,993.83
2018-07-15T06:43:01.456Z,993.81
2018-07-15T06:44:54.311Z,993.86
2018-07-15T06:45:54.200Z,993.83
2018-07-15T06:47:46.978Z,993.83
2018-07-15T06:48:46.853Z,993.83
2018-07-15T06:50:39.627Z,993.79
2018-07-15T06:51:39.499Z,993.77
2018-07-15T06:53:32.246Z,993.76
2018-07-15T06:54:32.160Z,993.78
2018-07-15T06:56:25.032Z,993.78
2018-07-15T06:57:24.899Z,993.79
2018-07-15T06:59:17.634Z,993.83
2018-07-15T07:00:17.544Z,993.82
2018-07-15T07:02:10.406Z,993.79
2018-07-15T07:03:10.309Z,993.78
2018-07-15T07:05:03.055Z,993.75
2018-07-15T07:06:02.939Z,993.73
2018-07-15T07:07:55.789Z,993.78
2018-07-15T07:08:55.852Z,993.77
2018-07-15T07:10:48.549Z,993.75
2018-07-15T07:11:48.481Z,993.77
2018-07-15T07:13:41.330Z,993.69
2018-07-15T07:14:41.217Z,993.74
2018-07-15T07:16:33.974Z,993.75
2018-07-15T07:17:33.846Z,993.75
2018-07-15T07:19:26.676Z,993.79
2018-07-15T07:20:26.631Z,993.78
2018-07-15T07:22:19.442Z,993.76
2018-07-15T07:23:19.355Z,993.78
2018-07-15T07:25:12.178Z,993.84
2018-07-15T07:26:12.119Z,993.79
2018-07-15T07:28:05.463Z,993.80
2018-07-15T07:29:05.341Z,993.78
2018-07-15T07:30:58.181Z,993.80
2018-07-15T07:31:58.106Z,993.79
2018-07-15T07:33:50.954Z,993.79
2018-07-15T07:34:50.862Z,993.79
2018-07-15T07:36:43.764Z,993.81
2018-07-15T07:37:43.632Z,993.83
2018-07-15T07:39:36.466Z,993.78
2018-07-15T07:40:36.336Z,993.82
2018-07-15T07:42:29.111Z,993.83
2018-07-15T07:43:28.988Z,993.82
2018-07-15T07:45:21.832Z,993.82
2018-07-15T07:46:21.771Z,993.86
2018-07-15T07:48:14.586Z,993.80
2018-07-15T07:49:14.479Z,993.83
2018-07-15T07:51:07.230Z,993.84
2018-07-15T07:52:07.145Z,993.78
2018-07-15T07:53:59.993Z,993.83
2018-07-15T07:54:59.879Z,993.80
2018-07-15T07:56:53.260Z,993.81
2018-07-15T07:57:52.544Z,993.83
2018-07-15T07:59:45.436Z,993.82
2018-07-15T08:00:45.280Z,993.86
2018-07-15T08:02:38.317Z,993.84
2018-07-15T08:03:38.126Z,993.84
2018-07-15T08:05:31.488Z,993.83
2018-07-15T08:06:31.304Z,993.88
2018-07-15T08:08:24.166Z,993.87
2018-07-15T08:09:24.052Z,993.87
2018-07-15T08:11:16.922Z,993.85
2018-07-15T08:12:16.920Z,993.88
2018-07-15T08:14:09.640Z,993.88
2018-07-15T08:15:09.618Z,993.80
2018-07-15T08:17:02.495Z,993.82
2018-07-15T08:18:02.339Z,993.82
2018-07-15T08:19:55.155Z,993.80
2018-07-15T08:20:55.042Z,993.80
2018-07-15T08:22:47.914Z,993.82
2018-07-15T08:23:47.800Z,993.77
2018-07-15T08:25:40.655Z,993.81
2018-07-15T08:26:40.537Z,993.81
2018-07-15T08:28:33.590Z,993.80
2018-07-15T08:29:33.340Z,993.79
2018-07-15T08:31:26.135Z,993.75
2018-07-15T08:32:26.067Z,993.73
2018-07-15T08:34:18.907Z,993.71
2018-07-15T08:35:18.786Z,993.73
2018-07-15T08:37:11.654Z,993.71
2018-07-15T08:38:11.539Z,993.74
2018-07-15T08:40:04.487Z,993.71
2018-07-15T08:41:04.441Z,993.72
2018-07-15T08:42:57.334Z,993.71
2018-07-15T08:43:57.241Z,993.78
2018-07-15T08:45:50.211Z,993.76
2018-07-15T08:46:50.110Z,993.78
2018-07-15T08:48:43.046Z,993.78
2018-07-15T08:49:42.946Z,993.78
2018-07-15T08:51:35.830Z,993.80
2018-07-15T08:52:35.716Z,993.78
2018-07-15T08:54:28.540Z,993.74
2018-07-15T08:55:28.448Z,993.78
2018-07-15T08:57:21.312Z,993.76
2018-07-15T08:58:21.199Z,993.75
2018-07-15T09:00:14.068Z,993.78
2018-07-15T09:01:13.950Z,993.77
2018-07-15T09:03:06.785Z,993.78
2018-07-15T09:04:06.687Z,993.73
2018-07-15T09:05:59.570Z,993.73
2018-07-15T09:06:59.440Z,993.73
2018-07-15T09:08:52.493Z,993.71
2018-07-15T09:09:52.404Z,993.75
2018-07-15T09:11:45.298Z,993.75
2018-07-15T09:12:45.276Z,993.75
2018-07-15T09:14:38.566Z,993.70
2018-07-15T09:15:38.423Z,993.67
2018-07-15T09:17:31.794Z,993.67
2018-07-15T09:18:31.306Z,993.68
2018-07-15T09:20:24.220Z,993.66
2018-07-15T09:21:24.114Z,993.63
2018-07-15T09:23:19.502Z,993.64
2018-07-15T09:24:19.038Z,993.62
2018-07-15T09:26:12.001Z,993.64
2018-07-15T09:27:11.876Z,993.61
2018-07-15T09:29:05.241Z,993.63
2018-07-15T09:30:05.136Z,993.57
2018-07-15T09:31:58.108Z,993.58
2018-07-15T09:32:58.006Z,993.60
2018-07-15T09:34:50.949Z,993.58
2018-07-15T09:35:50.848Z,993.57
2018-07-15T09:37:44.198Z,993.58
2018-07-15T09:38:43.705Z,993.58
2018-07-15T09:40:36.677Z,993.55
2018-07-15T09:41:36.544Z,993.51
2018-07-15T09:43:29.478Z,993.55
2018-07-15T09:44:29.401Z,993.52
2018-07-15T09:46:22.368Z,993.51
2018-07-15T09:47:22.236Z,993.54
2018-07-15T09:49:15.589Z,993.47
2018-07-15T09:50:15.506Z,993.49
2018-07-15T09:52:08.466Z,993.48
2018-07-15T09:53:08.356Z,993.43
2018-07-15T09:55:01.330Z,993.48
2018-07-15T09:56:01.219Z,993.52
2018-07-15T09:57:54.158Z,993.49
2018-07-15T09:58:54.072Z,993.43
2018-07-15T10:00:47.015Z,993.50
2018-07-15T10:01:46.918Z,993.49
2018-07-15T10:03:39.851Z,993.49
2018-07-15T10:04:39.774Z,993.46
2018-07-15T10:06:32.723Z,993.46
2018-07-15T10:07:32.694Z,993.46
2018-07-15T10:09:25.568Z,993.41
2018-07-15T10:10:25.497Z,993.40
2018-07-15T10:12:18.440Z,993.41
2018-07-15T10:13:18.336Z,993.36
2018-07-15T10:15:11.293Z,993.43
2018-07-15T10:16:11.203Z,993.43
2018-07-15T10:18:04.019Z,993.38
2018-07-15T10:19:04.046Z,993.39
2018-07-15T10:20:56.876Z,993.37
2018-07-15T10:21:56.798Z,993.36
2018-07-15T10:24:00.073Z,993.40
2018-07-15T10:24:51.553Z,993.35
2018-07-15T10:26:44.412Z,993.33
2018-07-15T10:27:44.253Z,993.35
2018-07-15T10:29:37.587Z,993.33
2018-07-15T10:30:37.185Z,993.34
2018-07-15T10:32:30.042Z,993.30
2018-07-15T10:33:29.925Z,993.31
2018-07-15T10:35:22.905Z,993.29
2018-07-15T10:36:22.802Z,993.24
2018-07-15T10:38:15.717Z,993.26
2018-07-15T10:39:15.635Z,993.23
2018-07-15T10:41:08.653Z,993.22
2018-07-15T10:42:08.484Z,993.20
2018-07-15T10:44:01.447Z,993.21
2018-07-15T10:45:01.355Z,993.21
2018-07-15T10:46:54.393Z,993.14
2018-07-15T10:47:54.180Z,993.15
2018-07-15T10:49:47.129Z,993.19
2018-07-15T10:50:47.040Z,993.15
2018-07-15T10:52:39.984Z,993.19
2018-07-15T10:53:39.879Z,993.22
2018-07-15T10:55:32.870Z,993.18
2018-07-15T10:56:32.748Z,993.12
2018-07-15T10:58:25.704Z,993.10
2018-07-15T10:59:25.593Z,993.11
2018-07-15T11:01:18.573Z,993.11
2018-07-15T11:02:18.445Z,993.10
2018-07-15T11:04:11.382Z,993.11
2018-07-15T11:05:11.296Z,993.09
2018-07-15T11:07:05.180Z,993.05
2018-07-15T11:08:04.247Z,993.04
2018-07-15T11:09:57.089Z,992.98
2018-07-15T11:10:57.011Z,993.04
2018-07-15T11:12:49.952Z,992.93
2018-07-15T11:13:49.849Z,992.97
2018-07-15T11:15:42.785Z,992.97
2018-07-15T11:16:42.737Z,992.98
2018-07-15T11:18:35.665Z,992.95
2018-07-15T11:19:35.557Z,992.94
2018-07-15T11:21:29.226Z,992.90
2018-07-15T11:22:29.235Z,992.89
2018-07-15T11:24:22.141Z,992.86
2018-07-15T11:25:21.982Z,992.90
2018-07-15T11:27:14.943Z,992.94
2018-07-15T11:28:14.836Z,992.92
2018-07-15T11:30:08.219Z,992.86
2018-07-15T11:31:07.888Z,992.85
2018-07-15T11:33:00.663Z,992.86
2018-07-15T11:34:00.536Z,992.84
2018-07-15T11:35:54.250Z,992.84
2018-07-15T11:36:53.502Z,992.81
2018-07-15T11:38:46.252Z,992.84
2018-07-15T11:39:46.240Z,992.80
2018-07-15T11:41:39.008Z,992.75
2018-07-15T11:42:38.891Z,992.77
2018-07-15T11:44:31.763Z,992.74
2018-07-15T11:45:31.637Z,992.78
2018-07-15T11:47:24.490Z,992.68
2018-07-15T11:48:24.501Z,992.71
2018-07-15T11:50:17.255Z,992.72
2018-07-15T11:51:17.159Z,992.67
2018-07-15T11:53:09.973Z,992.68
2018-07-15T11:54:09.890Z,992.70
2018-07-15T11:56:02.749Z,992.59
2018-07-15T11:57:02.659Z,992.61
2018-07-15T11:58:55.477Z,992.60
2018-07-15T11:59:55.530Z,992.57
2018-07-15T12:01:48.312Z,992.57
2018-07-15T12:02:48.141Z,992.60
2018-07-15T12:04:40.979Z,992.57
2018-07-15T12:05:40.906Z,992.57
2018-07-15T12:07:33.741Z,992.45
2018-07-15T12:08:33.634Z,992.50
2018-07-15T12:10:26.491Z,992.47
2018-07-15T12:11:26.396Z,992.47
2018-07-15T12:13:19.246Z,992.51
2018-07-15T12:14:19.140Z,992.52
2018-07-15T12:16:12.003Z,992.46
2018-07-15T12:17:11.892Z,992.42
2018-07-15T12:19:04.726Z,992.38
2018-07-15T12:20:04.680Z,992.36
2018-07-15T12:21:57.478Z,992.38
2018-07-15T12:22:57.381Z,992.35
2018-07-15T12:24:50.226Z,992.37
2018-07-15T12:25:50.135Z,992.38
2018-07-15T12:27:43.496Z,992.38
2018-07-15T12:28:42.877Z,992.34
2018-07-15T12:30:35.768Z,992.31
2018-07-15T12:31:35.627Z,992.33
2018-07-15T12:33:28.479Z,992.34
2018-07-15T12:34:28.400Z,992.32
2018-07-15T12:36:21.237Z,992.32
2018-07-15T12:37:21.141Z,992.29
2018-07-15T12:39:14.008Z,992.32
2018-07-15T12:40:13.899Z,992.32
2018-07-15T12:42:06.728Z,992.31
2018-07-15T12:43:06.628Z,992.30
2018-07-15T12:44:59.507Z,992.20
2018-07-15T12:45:59.383Z,992.25
2018-07-15T12:47:52.216Z,992.27
2018-07-15T12:48:52.166Z,992.21
2018-07-15T12:50:44.993Z,992.22
2018-07-15T12:51:44.895Z,992.15
2018-07-15T12:53:37.722Z,992.14
2018-07-15T12:54:37.623Z,992.19
2018-07-15T12:56:30.481Z,992.19
2018-07-15T12:57:30.376Z,992.18
2018-07-15T12:59:23.238Z,992.13
2018-07-15T13:00:23.168Z,992.04
2018-07-15T13:02:15.969Z,992.09
2018-07-15T13:03:15.870Z,992.03
2018-07-15T13:05:08.735Z,992.05
2018-07-15T13:06:08.629Z,992.06
2018-07-15T13:08:01.456Z,992.10
2018-07-15T13:09:01.381Z,992.08
2018-07-15T13:10:54.235Z,992.09
2018-07-15T13:11:54.124Z,992.09
2018-07-15T13:13:46.971Z,992.09
2018-07-15T13:14:46.877Z,992.09
2018-07-15T13:16:39.726Z,992.10
2018-07-15T13:17:39.621Z,992.03
2018-07-15T13:19:32.454Z,991.98
2018-07-15T13:20:32.372Z,991.93
2018-07-15T13:22:25.228Z,992.01
2018-07-15T13:23:25.186Z,991.97
2018-07-15T13:25:17.975Z,991.91
2018-07-15T13:26:17.887Z,991.93
2018-07-15T13:28:10.707Z,992.04
2018-07-15T13:29:10.611Z,992.04
2018-07-15T13:31:03.560Z,992.00
2018-07-15T13:32:03.579Z,991.98
2018-07-15T13:33:56.213Z,991.96
2018-07-15T13:34:56.127Z,991.99
2018-07-15T13:36:48.999Z,991.95
2018-07-15T13:37:48.866Z,991.92
2018-07-15T13:39:41.735Z,991.91
2018-07-15T13:40:41.640Z,991.94
2018-07-15T13:42:34.473Z,992.00
2018-07-15T13:43:34.367Z,991.98
2018-07-15T13:45:27.265Z,991.89
2018-07-15T13:46:27.139Z,991.94
2018-07-15T13:48:19.952Z,991.87
2018-07-15T13:49:19.875Z,991.85
2018-07-15T13:51:13.240Z,991.84
2018-07-15T13:52:12.624Z,991.80
2018-07-15T13:54:05.453Z,991.86
2018-07-15T13:55:05.365Z,991.84
2018-07-15T13:56:58.237Z,991.80
2018-07-15T13:57:58.117Z,991.80
2018-07-15T13:59:50.961Z,991.78
2018-07-15T14:00:50.863Z,991.83
2018-07-15T14:02:43.713Z,991.78
2018-07-15T14:03:43.639Z,991.77
2018-07-15T14:05:36.455Z,991.78
2018-07-15T14:06:36.402Z,991.76
2018-07-15T14:08:29.242Z,991.72
2018-07-15T14:09:29.138Z,991.77
2018-07-15T14:11:21.947Z,991.76
2018-07-15T14:12:21.862Z,991.79
2018-07-15T14:14:14.712Z,991.77
2018-07-15T14:15:14.630Z,991.70
2018-07-15T14:17:07.443Z,991.66
2018-07-15T14:18:07.394Z,991.68
2018-07-15T14:20:00.216Z,991.65
2018-07-15T14:21:00.115Z,991.57
2018-07-15T14:22:53.045Z,991.65
2018-07-15T14:23:52.867Z,991.65
2018-07-15T14:25:45.704Z,991.68
2018-07-15T14:26:45.638Z,991.58
2018-07-15T14:28:38.479Z,991.60
2018-07-15T14:29:38.370Z,991.65
2018-07-15T14:31:31.198Z,991.62
2018-07-15T14:32:31.112Z,991.58
2018-07-15T14:34:23.970Z,991.66
2018-07-15T14:35:23.852Z,991.62
2018-07-15T14:37:16.697Z,991.56
2018-07-15T14:38:16.609Z,991.58
2018-07-15T14:40:09.505Z,991.60
2018-07-15T14:41:09.360Z,991.64
2018-07-15T14:43:02.619Z,991.60
2018-07-15T14:44:02.514Z,991.57
2018-07-15T14:45:55.347Z,991.54
2018-07-15T14:46:55.270Z,991.54
2018-07-15T14:48:48.115Z,991.50
2018-07-15T14:49:48.019Z,991.50
2018-07-15T14:51:40.851Z,991.51
2018-07-15T14:52:40.773Z,991.51
2018-07-15T14:54:33.626Z,991.56
2018-07-15T14:55:33.536Z,991.53
2018-07-15T14:57:26.390Z,991.58
2018-07-15T14:58:26.265Z,991.50
2018-07-15T15:00:19.120Z,991.55
2018-07-15T15:01:19.022Z,991.54
2018-07-15T15:03:12.022Z,991.56
2018-07-15T15:04:11.807Z,991.50
2018-07-15T15:06:04.619Z,991.54
2018-07-15T15:07:04.513Z,991.57
2018-07-15T15:08:57.360Z,991.50
2018-07-15T15:09:57.277Z,991.49
2018-07-15T15:11:50.108Z,991.59
2018-07-15T15:12:50.021Z,991.52
2018-07-15T15:14:42.857Z,991.48
2018-07-15T15:15:42.786Z,991.47
2018-07-15T15:17:35.609Z,991.49
2018-07-15T15:18:35.525Z,991.43
2018-07-15T15:20:28.361Z,991.44
2018-07-15T15:21:28.273Z,991.44
2018-07-15T15:23:21.119Z,991.54
2018-07-15T15:24:21.015Z,991.43
2018-07-15T15:26:13.871Z,991.48
2018-07-15T15:27:13.770Z,991.47
2018-07-15T15:29:07.128Z,991.37
2018-07-15T15:30:07.022Z,991.38
2018-07-15T15:31:59.956Z,991.39
2018-07-15T15:32:59.887Z,991.32
2018-07-15T15:34:52.725Z,991.41
2018-07-15T15:35:52.632Z,991.38
2018-07-15T15:37:45.469Z,991.36
2018-07-15T15:38:45.384Z,991.31
2018-07-15T15:40:38.250Z,991.29
2018-07-15T15:41:38.127Z,991.25
2018-07-15T15:43:31.017Z,991.28
2018-07-15T15:44:30.877Z,991.22
2018-07-15T15:46:23.728Z,991.25
2018-07-15T15:47:23.634Z,991.20
2018-07-15T15:49:16.473Z,991.14
2018-07-15T15:50:16.454Z,991.22
2018-07-15T15:52:10.157Z,991.25
2018-07-15T15:53:10.057Z,991.20
2018-07-15T15:55:02.888Z,991.21
2018-07-15T15:56:02.799Z,991.24
2018-07-15T15:57:55.710Z,991.20
2018-07-15T15:58:55.558Z,991.19
2018-07-15T16:00:48.896Z,991.17
2018-07-15T16:01:48.818Z,991.16
2018-07-15T16:03:41.657Z,991.16
2018-07-15T16:04:41.559Z,991.13
2018-07-15T16:06:34.405Z,991.12
2018-07-15T16:07:34.353Z,991.19
2018-07-15T16:09:27.255Z,991.24
2018-07-15T16:10:27.159Z,991.23
2018-07-15T16:12:19.995Z,991.25
2018-07-15T16:13:19.913Z,991.29
2018-07-15T16:15:12.788Z,991.40
2018-07-15T16:16:12.669Z,991.38
2018-07-15T16:18:05.610Z,991.47
2018-07-15T16:19:05.521Z,991.39
2018-07-15T16:20:58.343Z,991.42
2018-07-15T16:21:58.262Z,991.42
2018-07-15T16:23:51.630Z,991.42
2018-07-15T16:24:51.536Z,991.40
2018-07-15T16:26:44.353Z,991.46
2018-07-15T16:27:44.275Z,991.47
2018-07-15T16:29:37.117Z,991.50
2018-07-15T16:30:37.027Z,991.46
2018-07-15T16:32:29.865Z,991.45
2018-07-15T16:33:29.772Z,991.48
2018-07-15T16:35:22.721Z,991.50
2018-07-15T16:36:22.624Z,991.44
2018-07-15T16:38:15.486Z,991.49
2018-07-15T16:39:15.370Z,991.49
2018-07-15T16:41:08.221Z,991.41
2018-07-15T16:42:08.133Z,991.44
2018-07-15T16:44:00.976Z,991.37
2018-07-15T16:45:00.880Z,991.40
2018-07-15T16:46:54.216Z,991.43
2018-07-15T16:47:54.148Z,991.45
2018-07-15T16:49:47.021Z,991.44
2018-07-15T16:50:46.894Z,991.38
2018-07-15T16:52:40.775Z,991.34
2018-07-15T16:53:40.666Z,991.35
2018-07-15T16:55:33.528Z,991.38
2018-07-15T16:56:33.414Z,991.36
2018-07-15T16:58:26.252Z,991.35
2018-07-15T16:59:26.178Z,991.37
2018-07-15T17:01:19.002Z,991.38
2018-07-15T17:02:18.904Z,991.40
2018-07-15T17:04:11.849Z,991.39
2018-07-15T17:05:11.753Z,991.43
2018-07-15T17:07:04.622Z,991.36
2018-07-15T17:08:04.515Z,991.41
2018-07-15T17:09:57.361Z,991.44
2018-07-15T17:10:57.260Z,991.45
2018-07-15T17:12:50.106Z,991.18
2018-07-15T17:13:50.019Z,991.47
2018-07-15T17:15:42.883Z,991.51
2018-07-15T17:16:42.757Z,991.47
2018-07-15T17:18:35.596Z,991.49
2018-07-15T17:19:35.516Z,991.46
2018-07-15T17:21:28.364Z,991.50
2018-07-15T17:22:28.259Z,991.52
2018-07-15T17:24:21.203Z,991.55
2018-07-15T17:25:21.124Z,991.57
2018-07-15T17:27:14.105Z,991.61
2018-07-15T17:28:13.961Z,991.58
2018-07-15T17:30:07.812Z,991.59
2018-07-15T17:31:07.785Z,991.59
2018-07-15T17:33:00.682Z,991.63
2018-07-15T17:34:00.596Z,991.66
2018-07-15T17:35:53.588Z,991.65
2018-07-15T17:36:53.444Z,991.66
2018-07-15T17:38:48.730Z,991.67
2018-07-15T17:39:46.293Z,991.65
2018-07-15T17:41:40.204Z,991.66
2018-07-15T17:42:39.306Z,991.63
2018-07-15T17:44:32.748Z,991.66
2018-07-15T17:45:32.539Z,991.63
2018-07-15T17:47:25.471Z,991.66
2018-07-15T17:48:25.372Z,991.62
2018-07-15T17:50:18.357Z,991.58
2018-07-15T17:51:18.209Z,991.59
2018-07-15T17:53:11.155Z,991.65
2018-07-15T17:54:11.064Z,991.62
2018-07-15T17:56:04.084Z,991.66
2018-07-15T17:57:03.922Z,991.67
2018-07-15T17:58:56.927Z,991.66